sensor_id;sensor_type;location;lat;lon;timestamp;pressure;altitude;pressure_sealevel;temperature;humidity
58367;BME280;57745;42.524;12.052;2023-10-13T00:01:25;97024.13;;;25.35;36.62
58367;BME280;57745;42.524;12.052;2023-10-13T00:03:50;97015.97;;;25.54;36.45
58367;BME280;57745;42.524;12.052;2023-10-13T00:06:19;97019.31;;;25.47;36.68
58367;BME280;57745;42.524;12.052;2023-10-13T00:08:45;97016.50;;;25.52;36.60
58367;BME280;57745;42.524;12.052;2023-10-13T00:11:15;97021.28;;;25.57;36.88
58367;BME280;57745;42.524;12.052;2023-10-13T00:13:41;97023.34;;;25.46;37.11
58367;BME280;57745;42.524;12.052;2023-10-13T00:16:08;97026.28;;;25.70;36.98
58367;BME280;57745;42.524;12.052;2023-10-13T00:18:46;97023.78;;;25.61;37.34
58367;BME280;57745;42.524;12.052;2023-10-13T00:21:14;97025.09;;;25.49;37.78
58367;BME280;57745;42.524;12.052;2023-10-13T00:24:00;97024.88;;;25.35;38.23
58367;BME280;57745;42.524;12.052;2023-10-13T00:26:37;97032.91;;;25.50;38.31
58367;BME280;57745;42.524;12.052;2023-10-13T00:29:03;97027.09;;;25.48;38.16
58367;BME280;57745;42.524;12.052;2023-10-13T00:31:32;97031.94;;;25.42;38.56
58367;BME280;57745;42.524;12.052;2023-10-13T00:34:04;97022.34;;;25.43;38.56
58367;BME280;57745;42.524;12.052;2023-10-13T00:36:41;97012.69;;;25.55;37.81
58367;BME280;57745;42.524;12.052;2023-10-13T00:39:33;97007.47;;;25.40;38.28
58367;BME280;57745;42.524;12.052;2023-10-13T00:42:02;97009.47;;;25.46;37.70
58367;BME280;57745;42.524;12.052;2023-10-13T00:44:32;97011.81;;;25.30;37.75
58367;BME280;57745;42.524;12.052;2023-10-13T00:47:04;97015.28;;;25.36;37.99
58367;BME280;57745;42.524;12.052;2023-10-13T00:49:33;97016.53;;;25.47;37.89
58367;BME280;57745;42.524;12.052;2023-10-13T00:52:05;97014.78;;;25.44;37.83
58367;BME280;57745;42.524;12.052;2023-10-13T00:54:32;97014.47;;;25.53;37.63
58367;BME280;57745;42.524;12.052;2023-10-13T00:57:00;97009.38;;;25.68;37.63
58367;BME280;57745;42.524;12.052;2023-10-13T00:59:33;97012.25;;;25.46;37.79
58367;BME280;57745;42.524;12.052;2023-10-13T01:02:01;97002.13;;;25.48;37.79
58367;BME280;57745;42.524;12.052;2023-10-13T01:04:47;97002.59;;;25.52;37.59
58367;BME280;57745;42.524;12.052;2023-10-13T01:07:13;97008.91;;;25.58;37.26
58367;BME280;57745;42.524;12.052;2023-10-13T01:09:41;97004.38;;;25.50;37.54
58367;BME280;57745;42.524;12.052;2023-10-13T01:12:16;97013.50;;;25.45;37.32
58367;BME280;57745;42.524;12.052;2023-10-13T01:14:41;97006.97;;;25.36;37.42
58367;BME280;57745;42.524;12.052;2023-10-13T01:17:07;97014.53;;;25.41;37.41
58367;BME280;57745;42.524;12.052;2023-10-13T01:19:36;97004.88;;;25.54;37.97
58367;BME280;57745;42.524;12.052;2023-10-13T01:22:07;97003.84;;;25.57;37.60
58367;BME280;57745;42.524;12.052;2023-10-13T01:24:33;97005.66;;;25.49;37.41
58367;BME280;57745;42.524;12.052;2023-10-13T01:27:02;97006.38;;;25.55;37.41
58367;BME280;57745;42.524;12.052;2023-10-13T01:29:51;97016.53;;;25.41;38.07
58367;BME280;57745;42.524;12.052;2023-10-13T01:32:23;97008.41;;;25.54;37.96
58367;BME280;57745;42.524;12.052;2023-10-13T01:34:49;97009.91;;;25.61;37.86
58367;BME280;57745;42.524;12.052;2023-10-13T01:37:18;97011.69;;;25.58;37.55
58367;BME280;57745;42.524;12.052;2023-10-13T01:39:44;97004.34;;;25.61;37.45
58367;BME280;57745;42.524;12.052;2023-10-13T01:42:14;97013.28;;;25.37;37.94
58367;BME280;57745;42.524;12.052;2023-10-13T01:44:45;97007.06;;;25.14;38.32
58367;BME280;57745;42.524;12.052;2023-10-13T01:47:10;97000.09;;;25.49;37.83
58367;BME280;57745;42.524;12.052;2023-10-13T01:49:38;97001.09;;;25.51;37.58
58367;BME280;57745;42.524;12.052;2023-10-13T01:52:13;96995.78;;;25.53;37.82
58367;BME280;57745;42.524;12.052;2023-10-13T01:54:46;96996.06;;;25.50;37.91
58367;BME280;57745;42.524;12.052;2023-10-13T01:57:12;96997.91;;;25.30;37.89
58367;BME280;57745;42.524;12.052;2023-10-13T01:59:49;96993.34;;;25.38;38.04
58367;BME280;57745;42.524;12.052;2023-10-13T02:02:15;96995.66;;;25.29;38.18
58367;BME280;57745;42.524;12.052;2023-10-13T02:04:51;97001.34;;;25.48;37.66
58367;BME280;57745;42.524;12.052;2023-10-13T02:07:26;97005.44;;;25.35;38.18
58367;BME280;57745;42.524;12.052;2023-10-13T02:10:00;96999.75;;;25.17;38.47
58367;BME280;57745;42.524;12.052;2023-10-13T02:12:29;96991.91;;;25.15;38.21
58367;BME280;57745;42.524;12.052;2023-10-13T02:15:02;96992.13;;;25.23;37.98
58367;BME280;57745;42.524;12.052;2023-10-13T02:17:30;96997.47;;;25.21;37.67
58367;BME280;57745;42.524;12.052;2023-10-13T02:20:06;97002.47;;;25.33;37.54
58367;BME280;57745;42.524;12.052;2023-10-13T02:22:40;97005.75;;;25.26;37.38
58367;BME280;57745;42.524;12.052;2023-10-13T02:25:17;97006.75;;;25.29;37.30
58367;BME280;57745;42.524;12.052;2023-10-13T02:28:03;96996.50;;;25.07;37.03
58367;BME280;57745;42.524;12.052;2023-10-13T02:30:43;97008.56;;;25.15;37.19
58367;BME280;57745;42.524;12.052;2023-10-13T02:33:16;97006.81;;;25.12;37.06
58367;BME280;57745;42.524;12.052;2023-10-13T02:35:47;97004.06;;;25.07;36.96
58367;BME280;57745;42.524;12.052;2023-10-13T02:38:19;97008.31;;;25.19;37.05
58367;BME280;57745;42.524;12.052;2023-10-13T02:40:53;97006.53;;;25.21;36.57
58367;BME280;57745;42.524;12.052;2023-10-13T02:43:21;96998.44;;;25.23;36.50
58367;BME280;57745;42.524;12.052;2023-10-13T02:45:54;97001.00;;;25.16;36.69
58367;BME280;57745;42.524;12.052;2023-10-13T02:48:24;96998.69;;;25.31;36.14
58367;BME280;57745;42.524;12.052;2023-10-13T02:50:56;96988.78;;;25.35;35.71
58367;BME280;57745;42.524;12.052;2023-10-13T02:53:22;96991.59;;;25.30;35.48
58367;BME280;57745;42.524;12.052;2023-10-13T02:55:52;96989.13;;;25.15;35.89
58367;BME280;57745;42.524;12.052;2023-10-13T02:58:18;96991.41;;;25.17;35.58
58367;BME280;57745;42.524;12.052;2023-10-13T03:00:44;96984.59;;;25.12;35.83
58367;BME280;57745;42.524;12.052;2023-10-13T03:03:11;96976.72;;;25.27;35.39
58367;BME280;57745;42.524;12.052;2023-10-13T03:05:39;96994.19;;;25.11;35.81
58367;BME280;57745;42.524;12.052;2023-10-13T03:08:05;96985.09;;;25.16;35.97
58367;BME280;57745;42.524;12.052;2023-10-13T03:10:32;96978.25;;;25.28;35.78
58367;BME280;57745;42.524;12.052;2023-10-13T03:13:05;96992.66;;;25.21;36.30
58367;BME280;57745;42.524;12.052;2023-10-13T03:15:33;96987.59;;;25.25;36.09
58367;BME280;57745;42.524;12.052;2023-10-13T03:18:01;96998.69;;;25.31;36.09
58367;BME280;57745;42.524;12.052;2023-10-13T03:20:27;96985.31;;;25.24;36.28
58367;BME280;57745;42.524;12.052;2023-10-13T03:22:57;96997.16;;;25.30;36.27
58367;BME280;57745;42.524;12.052;2023-10-13T03:25:23;96993.38;;;25.27;36.33
58367;BME280;57745;42.524;12.052;2023-10-13T03:27:58;96993.69;;;25.18;36.49
58367;BME280;57745;42.524;12.052;2023-10-13T03:30:23;96991.16;;;25.20;36.75
58367;BME280;57745;42.524;12.052;2023-10-13T03:32:55;97000.25;;;25.15;36.57
58367;BME280;57745;42.524;12.052;2023-10-13T03:35:21;96995.44;;;25.16;36.73
58367;BME280;57745;42.524;12.052;2023-10-13T03:37:53;97001.00;;;25.16;36.96
58367;BME280;57745;42.524;12.052;2023-10-13T03:40:20;96993.97;;;24.98;37.21
58367;BME280;57745;42.524;12.052;2023-10-13T03:42:49;96992.72;;;24.88;37.18
58367;BME280;57745;42.524;12.052;2023-10-13T03:45:26;96992.50;;;24.97;37.58
58367;BME280;57745;42.524;12.052;2023-10-13T03:47:52;96993.97;;;25.09;37.00
58367;BME280;57745;42.524;12.052;2023-10-13T03:50:18;96997.47;;;25.15;37.00
58367;BME280;57745;42.524;12.052;2023-10-13T03:52:58;96990.69;;;24.99;37.74
58367;BME280;57745;42.524;12.052;2023-10-13T03:55:26;96985.34;;;25.18;36.95
58367;BME280;57745;42.524;12.052;2023-10-13T03:57:55;96997.72;;;25.12;37.37
58367;BME280;57745;42.524;12.052;2023-10-13T04:00:24;96983.63;;;25.10;37.21
58367;BME280;57745;42.524;12.052;2023-10-13T04:02:52;96990.16;;;25.12;37.44
58367;BME280;57745;42.524;12.052;2023-10-13T04:05:33;96989.19;;;25.10;37.20
58367;BME280;57745;42.524;12.052;2023-10-13T04:08:05;96986.66;;;25.00;37.23
58367;BME280;57745;42.524;12.052;2023-10-13T04:10:42;96985.16;;;25.05;37.20
58367;BME280;57745;42.524;12.052;2023-10-13T04:13:17;96989.69;;;24.86;37.66
58367;BME280;57745;42.524;12.052;2023-10-13T04:16:01;96985.09;;;25.16;36.92
58367;BME280;57745;42.524;12.052;2023-10-13T04:18:47;96991.16;;;25.15;37.22
58367;BME280;57745;42.524;12.052;2023-10-13T04:21:25;96982.63;;;25.01;37.37
58367;BME280;57745;42.524;12.052;2023-10-13T04:24:11;96986.19;;;24.96;37.60
58367;BME280;57745;42.524;12.052;2023-10-13T04:26:43;96991.97;;;25.04;37.81
58367;BME280;57745;42.524;12.052;2023-10-13T04:29:27;96993.97;;;25.09;37.59
58367;BME280;57745;42.524;12.052;2023-10-13T04:32:11;96985.84;;;25.17;37.68
58367;BME280;57745;42.524;12.052;2023-10-13T04:34:40;96993.69;;;25.18;37.58
58367;BME280;57745;42.524;12.052;2023-10-13T04:37:11;96988.69;;;25.00;37.85
58367;BME280;57745;42.524;12.052;2023-10-13T04:39:54;96988.44;;;24.87;38.21
58367;BME280;57745;42.524;12.052;2023-10-13T04:42:23;96979.28;;;25.20;37.45
58367;BME280;57745;42.524;12.052;2023-10-13T04:45:11;96993.44;;;25.11;37.84
58367;BME280;57745;42.524;12.052;2023-10-13T04:47:55;96985.16;;;25.05;37.91
58367;BME280;57745;42.524;12.052;2023-10-13T04:50:44;96985.41;;;25.07;37.75
58367;BME280;57745;42.524;12.052;2023-10-13T04:53:14;97000.28;;;24.87;38.03
58367;BME280;57745;42.524;12.052;2023-10-13T04:55:57;96995.25;;;24.86;38.11
58367;BME280;57745;42.524;12.052;2023-10-13T04:58:33;97001.31;;;24.79;38.38
58367;BME280;57745;42.524;12.052;2023-10-13T05:00:59;97001.59;;;24.81;38.21
58367;BME280;57745;42.524;12.052;2023-10-13T05:03:44;97002.81;;;24.91;38.23
58367;BME280;57745;42.524;12.052;2023-10-13T05:06:19;97004.09;;;24.95;38.27
58367;BME280;57745;42.524;12.052;2023-10-13T05:09:03;97007.88;;;24.81;38.58
58367;BME280;57745;42.524;12.052;2023-10-13T05:11:47;97004.09;;;24.95;38.57
58367;BME280;57745;42.524;12.052;2023-10-13T05:14:31;97009.16;;;24.97;38.41
58367;BME280;57745;42.524;12.052;2023-10-13T05:17:15;97005.38;;;24.83;38.73
58367;BME280;57745;42.524;12.052;2023-10-13T05:19:59;97006.88;;;24.84;38.66
58367;BME280;57745;42.524;12.052;2023-10-13T05:22:43;97009.41;;;24.65;38.95
58367;BME280;57745;42.524;12.052;2023-10-13T05:25:27;97016.47;;;24.61;38.85
58367;BME280;57745;42.524;12.052;2023-10-13T05:28:11;97020.72;;;24.90;38.49
58367;BME280;57745;42.524;12.052;2023-10-13T05:30:58;97020.75;;;24.79;38.58
58367;BME280;57745;42.524;12.052;2023-10-13T05:33:42;97017.97;;;24.79;38.39
58367;BME280;57745;42.524;12.052;2023-10-13T05:36:26;97029.03;;;25.07;37.85
58367;BME280;57745;42.524;12.052;2023-10-13T05:39:10;97036.63;;;24.95;37.93
58367;BME280;57745;42.524;12.052;2023-10-13T05:41:54;97031.34;;;24.97;37.53
58367;BME280;57745;42.524;12.052;2023-10-13T05:44:38;97041.66;;;25.08;37.27
58367;BME280;57745;42.524;12.052;2023-10-13T05:47:18;97041.94;;;24.82;37.61
58367;BME280;57745;42.524;12.052;2023-10-13T05:50:02;97041.94;;;24.82;37.60
58367;BME280;57745;42.524;12.052;2023-10-13T05:52:50;97054.00;;;24.90;37.30
58367;BME280;57745;42.524;12.052;2023-10-13T05:55:24;97055.28;;;25.00;36.98
58367;BME280;57745;42.524;12.052;2023-10-13T05:58:08;97059.81;;;24.97;37.15
58367;BME280;57745;42.524;12.052;2023-10-13T06:00:53;97059.34;;;24.93;37.02
58367;BME280;57745;42.524;12.052;2023-10-13T06:03:37;97062.59;;;25.03;36.94
58367;BME280;57745;42.524;12.052;2023-10-13T06:06:21;97062.31;;;25.12;36.82
58367;BME280;57745;42.524;12.052;2023-10-13T06:09:05;97071.69;;;24.98;37.13
58367;BME280;57745;42.524;12.052;2023-10-13T06:11:49;97074.72;;;25.05;36.70
58367;BME280;57745;42.524;12.052;2023-10-13T06:14:33;97078.50;;;25.08;36.70
58367;BME280;57745;42.524;12.052;2023-10-13T06:17:31;97083.53;;;24.98;36.55
58367;BME280;57745;42.524;12.052;2023-10-13T06:20:15;97081.25;;;24.91;36.81
58367;BME280;57745;42.524;12.052;2023-10-13T06:22:59;97083.03;;;24.83;37.09
58367;BME280;57745;42.524;12.052;2023-10-13T06:25:50;97079.22;;;25.14;36.84
58367;BME280;57745;42.524;12.052;2023-10-13T06:28:34;97084.25;;;25.21;36.60
58367;BME280;57745;42.524;12.052;2023-10-13T06:31:06;97089.34;;;25.06;36.92
58367;BME280;57745;42.524;12.052;2023-10-13T06:33:32;97086.78;;;25.14;36.77
58367;BME280;57745;42.524;12.052;2023-10-13T06:36:02;97098.94;;;25.05;37.34
58367;BME280;57745;42.524;12.052;2023-10-13T06:38:29;97102.69;;;25.13;37.06
58367;BME280;57745;42.524;12.052;2023-10-13T06:41:04;97103.97;;;25.07;37.35
58367;BME280;57745;42.524;12.052;2023-10-13T06:43:36;97103.97;;;25.07;37.59
58367;BME280;57745;42.524;12.052;2023-10-13T06:46:08;97099.41;;;25.15;37.59
58367;BME280;57745;42.524;12.052;2023-10-13T06:48:40;97105.47;;;25.02;38.27
58367;BME280;57745;42.524;12.052;2023-10-13T06:51:07;97106.72;;;25.18;37.97
58367;BME280;57745;42.524;12.052;2023-10-13T06:53:47;97111.50;;;25.12;38.09
58367;BME280;57745;42.524;12.052;2023-10-13T06:56:16;97116.03;;;25.31;38.09
58367;BME280;57745;42.524;12.052;2023-10-13T06:58:52;97119.63;;;25.10;38.43
58367;BME280;57745;42.524;12.052;2023-10-13T07:01:27;97121.09;;;25.27;38.37
58367;BME280;57745;42.524;12.052;2023-10-13T07:03:52;97117.81;;;25.18;38.83
58367;BME280;57745;42.524;12.052;2023-10-13T07:06:22;97117.81;;;25.12;39.06
58367;BME280;57745;42.524;12.052;2023-10-13T07:08:48;97119.84;;;25.12;39.22
58367;BME280;57745;42.524;12.052;2023-10-13T07:11:26;97116.03;;;25.31;38.58
58367;BME280;57745;42.524;12.052;2023-10-13T07:14:00;97122.06;;;25.35;39.07
58367;BME280;57745;42.524;12.052;2023-10-13T07:16:26;97125.63;;;25.30;39.03
58367;BME280;57745;42.524;12.052;2023-10-13T07:19:00;97128.91;;;25.23;39.53
58367;BME280;57745;42.524;12.052;2023-10-13T07:21:32;97132.47;;;25.18;39.75
58367;BME280;57745;42.524;12.052;2023-10-13T07:23:58;97141.03;;;25.31;39.31
58367;BME280;57745;42.524;12.052;2023-10-13T07:26:34;97145.03;;;25.36;39.49
58367;BME280;57745;42.524;12.052;2023-10-13T07:29:00;97148.13;;;25.21;39.68
58367;BME280;57745;42.524;12.052;2023-10-13T07:31:25;97152.38;;;25.33;39.55
58367;BME280;57745;42.524;12.052;2023-10-13T07:33:52;97151.34;;;25.36;39.83
58367;BME280;57745;42.524;12.052;2023-10-13T07:36:19;97148.81;;;25.38;39.59
58367;BME280;57745;42.524;12.052;2023-10-13T07:38:58;97148.34;;;25.29;40.04
58367;BME280;57745;42.524;12.052;2023-10-13T07:41:42;97139.47;;;25.36;39.73
58367;BME280;57745;42.524;12.052;2023-10-13T07:44:07;97147.56;;;25.39;39.80
58367;BME280;57745;42.524;12.052;2023-10-13T07:46:33;97142.56;;;25.21;40.23
58367;BME280;57745;42.524;12.052;2023-10-13T07:49:00;97147.06;;;25.47;39.51
58367;BME280;57745;42.524;12.052;2023-10-13T07:51:35;97149.56;;;25.45;39.91
58367;BME280;57745;42.524;12.052;2023-10-13T07:54:10;97156.91;;;25.36;39.63
58367;BME280;57745;42.524;12.052;2023-10-13T07:56:38;97150.56;;;25.47;39.52
58367;BME280;57745;42.524;12.052;2023-10-13T07:59:05;97150.09;;;25.32;39.55
58367;BME280;57745;42.524;12.052;2023-10-13T08:01:35;97150.88;;;25.32;39.53
58367;BME280;57745;42.524;12.052;2023-10-13T08:04:00;97148.06;;;25.38;39.90
58367;BME280;57745;42.524;12.052;2023-10-13T08:06:32;97146.28;;;25.40;39.82
58367;BME280;57745;42.524;12.052;2023-10-13T08:08:59;97156.19;;;25.19;40.52
58367;BME280;57745;42.524;12.052;2023-10-13T08:11:37;97153.59;;;25.55;39.78
58367;BME280;57745;42.524;12.052;2023-10-13T08:14:04;97153.13;;;25.39;40.09
58367;BME280;57745;42.524;12.052;2023-10-13T08:16:47;97152.81;;;25.65;39.38
58367;BME280;57745;42.524;12.052;2023-10-13T08:19:17;97163.94;;;25.54;39.85
58367;BME280;57745;42.524;12.052;2023-10-13T08:21:45;97168.72;;;25.70;38.88
58367;BME280;57745;42.524;12.052;2023-10-13T08:24:24;97161.94;;;25.44;39.47
58367;BME280;57745;42.524;12.052;2023-10-13T08:26:53;97161.19;;;25.37;39.64
58367;BME280;57745;42.524;12.052;2023-10-13T08:29:37;97166.72;;;25.49;39.65
58367;BME280;57745;42.524;12.052;2023-10-13T08:32:34;97166.97;;;25.51;39.61
58367;BME280;57745;42.524;12.052;2023-10-13T08:35:02;97159.38;;;25.68;39.45
58367;BME280;57745;42.524;12.052;2023-10-13T08:37:30;97166.47;;;25.69;39.69
58367;BME280;57745;42.524;12.052;2023-10-13T08:39:59;97161.66;;;25.69;39.38
58367;BME280;57745;42.524;12.052;2023-10-13T08:42:38;97163.94;;;25.71;39.41
58367;BME280;57745;42.524;12.052;2023-10-13T08:45:14;97161.34;;;25.84;39.74
58367;BME280;57745;42.524;12.052;2023-10-13T08:47:50;97161.88;;;25.77;39.85
58367;BME280;57745;42.524;12.052;2023-10-13T08:50:49;97165.16;;;25.75;39.95
58367;BME280;57745;42.524;12.052;2023-10-13T08:53:21;97168.44;;;25.74;39.82
58367;BME280;57745;42.524;12.052;2023-10-13T08:58:33;97166.81;;;26.06;39.12
58367;BME280;57745;42.524;12.052;2023-10-13T09:06:49;97169.88;;;25.97;39.97
58367;BME280;57745;42.524;12.052;2023-10-13T09:12:27;97171.56;;;26.17;39.36
58367;BME280;57745;42.524;12.052;2023-10-13T09:15:03;97172.63;;;26.08;39.12
58367;BME280;57745;42.524;12.052;2023-10-13T09:17:31;97169.41;;;25.93;39.39
58367;BME280;57745;42.524;12.052;2023-10-13T09:20:06;97169.94;;;25.81;39.58
58367;BME280;57745;42.524;12.052;2023-10-13T09:22:55;97174.47;;;25.89;39.37
58367;BME280;57745;42.524;12.052;2023-10-13T09:25:37;97172.28;;;26.29;38.56
58367;BME280;57745;42.524;12.052;2023-10-13T09:28:11;97166.72;;;26.29;39.07
58367;BME280;57745;42.524;12.052;2023-10-13T09:30:47;97171.81;;;26.13;38.98
58367;BME280;57745;42.524;12.052;2023-10-13T09:33:12;97170.38;;;26.01;39.17
58367;BME280;57745;42.524;12.052;2023-10-13T09:35:44;97175.31;;;26.31;38.51
58367;BME280;57745;42.524;12.052;2023-10-13T09:38:16;97174.31;;;26.28;38.54
58367;BME280;57745;42.524;12.052;2023-10-13T09:40:43;97168.75;;;26.23;38.96
58367;BME280;57745;42.524;12.052;2023-10-13T09:43:16;97167.28;;;26.10;38.73
58367;BME280;57745;42.524;12.052;2023-10-13T09:45:45;97171.31;;;26.21;38.65
58367;BME280;57745;42.524;12.052;2023-10-13T09:48:36;97174.31;;;26.23;38.79
58367;BME280;57745;42.524;12.052;2023-10-13T09:51:17;97169.84;;;26.08;38.59
58367;BME280;57745;42.524;12.052;2023-10-13T09:56:57;97178.59;;;26.24;38.32
58367;BME280;57745;42.524;12.052;2023-10-13T09:59:44;97172.72;;;26.44;38.15
58367;BME280;57745;42.524;12.052;2023-10-13T10:02:18;97176.53;;;26.35;38.40
58367;BME280;57745;42.524;12.052;2023-10-13T10:04:51;97165.97;;;26.28;37.66
58367;BME280;57745;42.524;12.052;2023-10-13T10:07:27;97166.41;;;26.38;38.13
58367;BME280;57745;42.524;12.052;2023-10-13T10:09:59;97169.38;;;26.51;37.96
58367;BME280;57745;42.524;12.052;2023-10-13T10:15:35;97159.59;;;26.39;37.43
58367;BME280;57745;42.524;12.052;2023-10-13T10:18:03;97157.91;;;26.66;37.01
58367;BME280;57745;42.524;12.052;2023-10-13T10:20:33;97166.84;;;26.47;37.38
58367;BME280;57745;42.524;12.052;2023-10-13T10:23:05;97158.84;;;26.38;37.54
58367;BME280;57745;42.524;12.052;2023-10-13T10:25:35;97158.31;;;26.45;37.46
58367;BME280;57745;42.524;12.052;2023-10-13T10:28:04;97167.41;;;26.40;37.62
58367;BME280;57745;42.524;12.052;2023-10-13T10:30:32;97160.16;;;26.32;37.72
58367;BME280;57745;42.524;12.052;2023-10-13T10:33:03;97153.63;;;26.59;37.43
58367;BME280;57745;42.524;12.052;2023-10-13T10:35:33;97158.97;;;26.57;37.21
58367;BME280;57745;42.524;12.052;2023-10-13T10:38:10;97150.66;;;26.52;37.29
58367;BME280;57745;42.524;12.052;2023-10-13T10:41:06;97152.34;;;26.60;36.96
58367;BME280;57745;42.524;12.052;2023-10-13T10:46:17;97151.16;;;26.50;36.76
58367;BME280;57745;42.524;12.052;2023-10-13T10:48:43;97144.00;;;26.66;36.63
58367;BME280;57745;42.524;12.052;2023-10-13T10:51:10;97143.38;;;26.43;36.94
58367;BME280;57745;42.524;12.052;2023-10-13T10:53:40;97146.19;;;26.37;36.85
58367;BME280;57745;42.524;12.052;2023-10-13T10:56:13;97140.22;;;26.63;36.39
58367;BME280;57745;42.524;12.052;2023-10-13T10:58:49;97136.06;;;26.40;36.59
58367;BME280;57745;42.524;12.052;2023-10-13T11:01:23;97138.75;;;26.57;36.25
58367;BME280;57745;42.524;12.052;2023-10-13T11:03:58;97135.13;;;26.67;36.21
58367;BME280;57745;42.524;12.052;2023-10-13T11:06:27;97127.16;;;26.47;36.25
58367;BME280;57745;42.524;12.052;2023-10-13T11:09:06;97138.09;;;26.75;36.75
58367;BME280;57745;42.524;12.052;2023-10-13T11:11:45;97139.13;;;26.72;36.15
58367;BME280;57745;42.524;12.052;2023-10-13T11:14:20;97129.16;;;26.52;36.43
58367;BME280;57745;42.524;12.052;2023-10-13T11:16:49;97130.09;;;26.60;36.54
58367;BME280;57745;42.524;12.052;2023-10-13T11:19:19;97120.97;;;26.65;35.95
58367;BME280;57745;42.524;12.052;2023-10-13T11:21:54;97115.75;;;26.56;36.09
58367;BME280;57745;42.524;12.052;2023-10-13T11:24:21;97115.50;;;26.54;35.93
58367;BME280;57745;42.524;12.052;2023-10-13T11:26:47;97102.69;;;26.75;35.84
58367;BME280;57745;42.524;12.052;2023-10-13T11:29:18;97108.91;;;26.57;36.11
58367;BME280;57745;42.524;12.052;2023-10-13T11:31:47;97109.13;;;26.59;35.99
58367;BME280;57745;42.524;12.052;2023-10-13T11:34:23;97105.31;;;26.62;35.91
58367;BME280;57745;42.524;12.052;2023-10-13T11:36:48;97102.25;;;26.66;35.75
58367;BME280;57745;42.524;12.052;2023-10-13T11:39:14;97097.69;;;26.68;35.20
58367;BME280;57745;42.524;12.052;2023-10-13T11:41:47;97093.34;;;26.73;35.25
58367;BME280;57745;42.524;12.052;2023-10-13T11:44:22;97094.59;;;26.72;35.21
58367;BME280;57745;42.524;12.052;2023-10-13T11:46:47;97100.75;;;26.65;34.93
58367;BME280;57745;42.524;12.052;2023-10-13T11:49:13;97093.09;;;26.71;34.76
58367;BME280;57745;42.524;12.052;2023-10-13T11:51:38;97093.34;;;26.73;34.65
58367;BME280;57745;42.524;12.052;2023-10-13T11:54:05;97085.56;;;26.66;34.66
58367;BME280;57745;42.524;12.052;2023-10-13T11:56:31;97090.28;;;26.76;34.49
58367;BME280;57745;42.524;12.052;2023-10-13T11:58:57;97081.78;;;26.63;34.40
58367;BME280;57745;42.524;12.052;2023-10-13T12:01:27;97083.56;;;26.61;34.56
58367;BME280;57745;42.524;12.052;2023-10-13T12:04:12;97075.88;;;26.72;34.07
58367;BME280;57745;42.524;12.052;2023-10-13T12:06:59;97074.16;;;26.69;33.81
58367;BME280;57745;42.524;12.052;2023-10-13T12:09:43;97068.63;;;26.64;34.62
58367;BME280;57745;42.524;12.052;2023-10-13T12:12:24;97070.91;;;26.65;34.42
58367;BME280;57745;42.524;12.052;2023-10-13T12:14:50;97064.53;;;26.70;34.33
58367;BME280;57745;42.524;12.052;2023-10-13T12:17:30;97069.25;;;26.81;34.50
58367;BME280;57745;42.524;12.052;2023-10-13T12:20:04;97055.59;;;26.77;34.05
58367;BME280;57745;42.524;12.052;2023-10-13T12:22:34;97043.75;;;26.71;34.11
58367;BME280;57745;42.524;12.052;2023-10-13T12:25:11;97056.59;;;26.80;34.40
58367;BME280;57745;42.524;12.052;2023-10-13T12:27:55;97051.28;;;26.82;34.25
58367;BME280;57745;42.524;12.052;2023-10-13T12:30:25;97046.69;;;26.84;34.04
58367;BME280;57745;42.524;12.052;2023-10-13T12:33:09;97044.19;;;26.81;33.81
58367;BME280;57745;42.524;12.052;2023-10-13T12:35:40;97042.59;;;26.61;33.92
58367;BME280;57745;42.524;12.052;2023-10-13T12:38:24;97047.50;;;26.79;33.69
58367;BME280;57745;42.524;12.052;2023-10-13T12:41:08;97042.97;;;26.76;33.65
58367;BME280;57745;42.524;12.052;2023-10-13T12:43:52;97031.38;;;26.72;33.59
58367;BME280;57745;42.524;12.052;2023-10-13T12:46:36;97037.44;;;26.71;33.36
58367;BME280;57745;42.524;12.052;2023-10-13T12:49:20;97033.09;;;26.75;33.68
58367;BME280;57745;42.524;12.052;2023-10-13T12:52:04;97030.66;;;26.66;33.82
58367;BME280;57745;42.524;12.052;2023-10-13T12:54:30;97035.38;;;26.77;33.57
58367;BME280;57745;42.524;12.052;2023-10-13T12:57:01;97032.31;;;26.80;33.36
58367;BME280;57745;42.524;12.052;2023-10-13T12:59:28;97020.34;;;26.61;33.65
58367;BME280;57745;42.524;12.052;2023-10-13T13:01:53;97029.84;;;26.71;33.13
58367;BME280;57745;42.524;12.052;2023-10-13T13:04:19;97031.59;;;26.74;33.30
58367;BME280;57745;42.524;12.052;2023-10-13T13:06:51;97033.94;;;26.70;33.08
58367;BME280;57745;42.524;12.052;2023-10-13T13:09:19;97024.19;;;26.82;33.89
58367;BME280;57745;42.524;12.052;2023-10-13T13:11:54;97018.69;;;26.77;33.85
58367;BME280;57745;42.524;12.052;2023-10-13T13:14:25;97008.44;;;26.91;33.43
58367;BME280;57745;42.524;12.052;2023-10-13T13:16:55;97012.84;;;26.80;33.60
58367;BME280;57745;42.524;12.052;2023-10-13T13:19:32;97018.91;;;26.79;33.52
58367;BME280;57745;42.524;12.052;2023-10-13T13:22:02;97014.09;;;26.79;34.24
58367;BME280;57745;42.524;12.052;2023-10-13T13:24:29;97014.97;;;26.69;34.38
58367;BME280;57745;42.524;12.052;2023-10-13T13:26:58;97010.16;;;26.69;34.13
58367;BME280;57745;42.524;12.052;2023-10-13T13:29:30;97009.84;;;26.73;33.95
58367;BME280;57745;42.524;12.052;2023-10-13T13:31:56;97011.19;;;26.66;34.42
58367;BME280;57745;42.524;12.052;2023-10-13T13:34:21;97005.44;;;26.83;34.40
58367;BME280;57745;42.524;12.052;2023-10-13T13:36:47;97007.56;;;26.77;34.45
58367;BME280;57745;42.524;12.052;2023-10-13T13:39:18;97003.41;;;26.83;34.68
58367;BME280;57745;42.524;12.052;2023-10-13T13:41:53;97003.50;;;26.78;34.74
58367;BME280;57745;42.524;12.052;2023-10-13T13:44:25;97005.31;;;27.00;34.30